createdAt,value
2019-05-09T00:01:15.873Z,1.27
2019-05-09T00:03:45.506Z,1.32
2019-05-09T00:06:15.019Z,0.98
2019-05-09T00:08:44.554Z,2.37
2019-05-09T00:11:14.748Z,1.22
2019-05-09T00:13:44.711Z,1.10
2019-05-09T00:16:14.653Z,2.58
2019-05-09T00:18:44.480Z,1.07
2019-05-09T00:21:15.503Z,1.50
2019-05-09T00:23:44.963Z,0.62
2019-05-09T00:26:14.456Z,2.42
2019-05-09T00:28:45.512Z,1.47
2019-05-09T00:31:16.565Z,2.35
2019-05-09T00:33:48.151Z,0.93
2019-05-09T00:36:18.338Z,0.95
2019-05-09T00:38:47.756Z,0.68
2019-05-09T00:41:17.208Z,1.25
2019-05-09T00:43:50.898Z,0.82
2019-05-09T00:46:23.663Z,0.93
2019-05-09T00:48:54.941Z,0.98
2019-05-09T00:51:24.608Z,2.10
2019-05-09T00:53:54.189Z,0.70
2019-05-09T00:56:24.080Z,0.60
2019-05-09T00:58:53.933Z,1.45
2019-05-09T01:01:24.145Z,1.02
2019-05-09T01:03:54.186Z,0.37
2019-05-09T01:06:24.156Z,0.72
2019-05-09T01:08:54.059Z,1.12
2019-05-09T01:11:24.234Z,0.85
2019-05-09T01:13:54.674Z,0.95
2019-05-09T01:16:24.448Z,0.75
2019-05-09T01:18:54.750Z,1.10
2019-05-09T01:21:24.337Z,1.57
2019-05-09T01:23:54.295Z,0.90
2019-05-09T01:26:24.343Z,0.90
2019-05-09T01:28:54.389Z,1.12
2019-05-09T01:31:24.476Z,1.92
2019-05-09T01:33:58.764Z,1.27
2019-05-09T01:36:30.030Z,0.65
2019-05-09T01:38:59.653Z,1.87
2019-05-09T01:41:33.410Z,1.55
2019-05-09T01:44:00.482Z,1.02
2019-05-09T01:46:29.867Z,0.62
2019-05-09T01:48:59.347Z,0.80
2019-05-09T01:51:28.926Z,1.30
2019-05-09T01:53:58.495Z,1.27
2019-05-09T01:56:27.917Z,1.52
2019-05-09T01:58:57.618Z,0.75
2019-05-09T02:01:27.253Z,0.78
2019-05-09T02:03:58.229Z,1.47
2019-05-09T02:06:28.373Z,0.70
2019-05-09T02:08:57.833Z,1.07
2019-05-09T02:11:39.465Z,0.57
2019-05-09T02:13:58.560Z,0.73
2019-05-09T02:16:36.519Z,1.42
2019-05-09T02:19:13.699Z,2.22
2019-05-09T02:21:43.817Z,3.17
2019-05-09T02:24:14.228Z,1.00
2019-05-09T02:26:44.021Z,0.98
2019-05-09T02:29:13.961Z,0.78
2019-05-09T02:31:44.739Z,1.90
2019-05-09T02:34:15.193Z,1.65
2019-05-09T02:36:45.066Z,0.68
2019-05-09T02:39:14.586Z,1.02
2019-05-09T02:41:59.653Z,2.10
2019-05-09T02:44:15.393Z,1.10
2019-05-09T02:46:49.365Z,0.57
2019-05-09T02:49:19.278Z,2.15
2019-05-09T02:51:49.018Z,0.75
2019-05-09T02:54:19.243Z,1.27
2019-05-09T02:56:49.484Z,1.75
2019-05-09T02:59:29.679Z,1.07
2019-05-09T03:02:09.615Z,1.40
2019-05-09T03:04:39.624Z,2.80
2019-05-09T03:07:09.897Z,1.47
2019-05-09T03:09:39.561Z,0.95
2019-05-09T03:12:22.991Z,1.40
2019-05-09T03:14:40.267Z,1.40
2019-05-09T03:17:09.880Z,1.55
2019-05-09T03:19:39.242Z,1.27
2019-05-09T03:22:19.265Z,2.17
2019-05-09T03:24:48.975Z,1.47
2019-05-09T03:27:20.084Z,0.68
2019-05-09T03:29:51.189Z,1.02
2019-05-09T03:32:20.709Z,2.15
2019-05-09T03:34:50.637Z,1.55
2019-05-09T03:37:20.533Z,1.82
2019-05-09T03:39:50.221Z,1.07
2019-05-09T03:42:23.082Z,2.65
2019-05-09T03:44:52.042Z,0.60
2019-05-09T03:47:27.605Z,0.80
2019-05-09T03:50:17.463Z,1.27
2019-05-09T03:52:47.892Z,0.50
2019-05-09T03:55:19.670Z,1.00
2019-05-09T03:57:51.370Z,2.60
2019-05-09T04:00:21.887Z,0.80
2019-05-09T04:02:52.290Z,1.52
2019-05-09T04:05:22.875Z,0.70
2019-05-09T04:07:53.590Z,1.12
2019-05-09T04:10:23.978Z,1.65
2019-05-09T04:12:57.184Z,1.00
2019-05-09T04:15:27.512Z,0.93
2019-05-09T04:17:57.987Z,1.02
2019-05-09T04:20:28.648Z,1.10
2019-05-09T04:22:59.545Z,2.47
2019-05-09T04:25:31.444Z,1.95
2019-05-09T04:28:03.174Z,0.57
2019-05-09T04:30:33.768Z,3.92
2019-05-09T04:33:04.135Z,0.75
2019-05-09T04:35:34.679Z,2.15
2019-05-09T04:38:07.343Z,1.92
2019-05-09T04:40:44.591Z,0.82
2019-05-09T04:43:15.547Z,0.82
2019-05-09T04:45:42.766Z,2.02
2019-05-09T04:48:33.020Z,1.45
2019-05-09T04:51:07.626Z,1.07
2019-05-09T04:53:39.775Z,1.17
2019-05-09T04:56:20.402Z,1.72
2019-05-09T04:58:50.481Z,0.75
2019-05-09T05:01:22.190Z,1.35
2019-05-09T05:03:54.057Z,0.88
2019-05-09T05:06:24.573Z,1.35
2019-05-09T05:08:55.113Z,1.07
2019-05-09T05:11:27.859Z,1.05
2019-05-09T05:13:58.607Z,1.12
2019-05-09T05:16:29.284Z,2.45
2019-05-09T05:18:59.484Z,2.12
2019-05-09T05:21:29.996Z,2.00
2019-05-09T05:24:02.321Z,2.30
2019-05-09T05:26:32.305Z,1.47
2019-05-09T05:29:03.045Z,3.55
2019-05-09T05:31:33.162Z,3.08
2019-05-09T05:34:05.257Z,2.00
2019-05-09T05:36:44.877Z,1.82
2019-05-09T05:39:15.082Z,1.32
2019-05-09T05:41:45.631Z,2.40
2019-05-09T05:44:17.716Z,2.52
2019-05-09T05:46:50.720Z,4.62
2019-05-09T05:49:20.015Z,3.22
2019-05-09T05:51:50.520Z,2.27
2019-05-09T05:54:21.648Z,4.42
2019-05-09T05:56:51.792Z,3.27
2019-05-09T05:59:21.881Z,3.17
2019-05-09T06:01:51.999Z,3.40
2019-05-09T06:04:21.813Z,4.95
2019-05-09T06:06:51.865Z,3.20
2019-05-09T06:09:22.068Z,16.60
2019-05-09T06:11:51.872Z,4.47
2019-05-09T06:14:22.271Z,6.37
2019-05-09T06:16:52.706Z,6.97
2019-05-09T06:19:23.136Z,5.00
2019-05-09T06:21:53.278Z,2.55
2019-05-09T06:24:23.602Z,7.30
2019-05-09T06:26:54.063Z,2.62
2019-05-09T06:29:24.520Z,3.87
2019-05-09T06:31:58.273Z,2.90
2019-05-09T06:34:28.197Z,5.83
2019-05-09T06:36:58.812Z,3.65
2019-05-09T06:39:30.027Z,6.80
2019-05-09T06:42:00.250Z,5.08
2019-05-09T06:44:44.711Z,6.53
2019-05-09T06:47:19.506Z,3.25
2019-05-09T06:49:51.341Z,3.20
2019-05-09T06:52:21.472Z,4.80
2019-05-09T06:54:51.990Z,2.67
2019-05-09T06:57:22.677Z,4.80
2019-05-09T06:59:53.689Z,3.80
2019-05-09T07:02:31.319Z,6.28
2019-05-09T07:05:03.108Z,4.85
2019-05-09T07:07:45.560Z,23.42
2019-05-09T07:12:45.123Z,17.62
2019-05-09T07:15:17.633Z,15.65
2019-05-09T07:17:48.167Z,24.82
2019-05-09T07:20:18.613Z,23.77
2019-05-09T07:22:50.847Z,12.47
2019-05-09T07:25:22.655Z,8.45
2019-05-09T07:27:53.732Z,7.53
2019-05-09T07:30:25.695Z,7.78
2019-05-09T07:33:14.013Z,7.65
2019-05-09T07:35:44.301Z,5.97
2019-05-09T07:38:14.492Z,14.23
2019-05-09T07:40:44.839Z,5.90
2019-05-09T07:43:14.588Z,4.62
2019-05-09T07:46:02.599Z,7.55
2019-05-09T07:48:32.706Z,8.58
2019-05-09T07:51:03.546Z,6.20
2019-05-09T07:53:34.181Z,7.50
2019-05-09T07:56:04.406Z,7.83
2019-05-09T07:58:37.510Z,6.35
2019-05-09T08:01:08.624Z,7.67
2019-05-09T15:00:51.545Z,258.75
2019-05-09T15:03:22.178Z,257.73
2019-05-09T15:05:52.551Z,266.20
2019-05-09T15:08:22.643Z,243.00
2019-05-09T15:10:52.934Z,267.95
2019-05-09T15:13:22.668Z,275.25
2019-05-09T15:15:53.355Z,278.95
2019-05-09T15:18:23.874Z,254.87
2019-05-09T15:20:53.938Z,522.80
2019-05-09T15:23:24.748Z,267.20
2019-05-09T15:35:09.055Z,243.95
2019-05-09T15:37:39.684Z,261.18
2019-05-09T15:40:10.210Z,243.17
2019-05-09T15:42:40.845Z,270.93
2019-05-09T15:45:11.467Z,248.35
2019-05-09T15:47:41.842Z,250.75
2019-05-09T15:50:20.080Z,248.20
2019-05-09T15:52:44.544Z,244.62
2019-05-09T15:55:17.553Z,260.88
2019-05-09T15:57:48.573Z,251.80
2019-05-09T16:00:19.344Z,249.50
2019-05-09T16:02:49.982Z,251.58
2019-05-09T16:05:20.494Z,253.98
2019-05-09T16:07:50.660Z,364.57
2019-05-09T16:10:21.098Z,254.87
2019-05-09T16:12:53.908Z,245.45
2019-05-09T16:15:24.383Z,247.85
2019-05-09T16:17:54.740Z,256.40
2019-05-09T16:20:36.848Z,251.95
2019-05-09T16:22:57.395Z,255.98
2019-05-09T16:25:28.269Z,254.23
2019-05-09T16:27:58.812Z,257.90
2019-05-09T16:41:09.008Z,261.55
2019-05-09T16:43:39.694Z,262.90
2019-05-09T16:46:10.529Z,261.80
2019-05-09T16:48:40.707Z,259.35
2019-05-09T16:51:11.225Z,262.35
2019-05-09T16:53:41.692Z,256.13
2019-05-09T16:56:11.757Z,253.37
2019-05-09T16:58:42.420Z,251.02
2019-05-09T17:01:12.568Z,274.40
2019-05-09T17:03:42.896Z,253.23
2019-05-09T17:06:13.023Z,246.80
2019-05-09T17:08:43.192Z,246.40
2019-05-09T17:11:13.758Z,248.35
2019-05-09T17:13:44.349Z,249.50
2019-05-09T17:16:14.829Z,251.82
2019-05-09T17:18:45.018Z,253.50
2019-05-09T17:21:28.527Z,393.88
2019-05-09T17:24:48.357Z,248.87
2019-05-09T17:27:19.097Z,245.90
2019-05-09T17:29:49.711Z,250.15
2019-05-09T17:32:20.398Z,251.00
2019-05-09T17:34:50.812Z,246.30
2019-05-09T17:37:21.529Z,248.28
2019-05-09T17:39:51.834Z,250.43
2019-05-09T17:42:22.159Z,252.93
2019-05-09T17:44:52.639Z,247.42
2019-05-09T17:47:23.230Z,249.42
2019-05-09T17:49:53.231Z,248.40
2019-05-09T17:52:23.185Z,244.87
2019-05-09T17:54:53.186Z,246.70
2019-05-09T17:57:23.281Z,250.93
2019-05-09T17:59:53.527Z,243.30
2019-05-09T18:02:23.918Z,245.42
2019-05-09T18:04:54.609Z,245.40
2019-05-09T18:07:24.966Z,243.97
2019-05-09T18:09:57.893Z,243.52
2019-05-09T18:12:27.830Z,250.43
2019-05-09T18:14:58.346Z,243.73
2019-05-09T18:17:28.798Z,245.33
2019-05-09T18:19:59.212Z,248.28
2019-05-09T18:22:29.647Z,245.85
2019-05-09T18:24:59.961Z,251.10
2019-05-09T18:27:30.078Z,253.45
2019-05-09T18:30:00.255Z,250.67
2019-05-09T18:32:48.228Z,249.88
2019-05-09T18:35:22.850Z,253.65
2019-05-09T18:37:53.027Z,245.37
2019-05-09T18:40:23.166Z,246.47
2019-05-09T18:42:53.068Z,242.10
2019-05-09T18:45:23.225Z,254.25
2019-05-09T18:47:53.332Z,249.30
2019-05-09T18:50:23.244Z,253.70
2019-05-09T18:52:53.230Z,249.22
2019-05-09T18:55:23.219Z,248.05
2019-05-09T18:57:53.256Z,245.23
2019-05-09T19:00:24.377Z,246.17
2019-05-09T19:02:54.366Z,249.00
2019-05-09T19:05:24.462Z,252.68
2019-05-09T19:07:54.453Z,245.55
2019-05-09T19:10:24.562Z,245.73
2019-05-09T19:12:54.699Z,255.87
2019-05-09T19:15:26.524Z,258.43
2019-05-09T19:18:10.042Z,247.95
2019-05-09T19:20:39.449Z,257.55
2019-05-09T19:23:09.212Z,250.95
2019-05-09T19:25:38.739Z,251.20
2019-05-09T19:28:08.631Z,249.65
2019-05-09T19:30:38.235Z,251.55
2019-05-09T19:33:07.767Z,249.52
2019-05-09T19:35:37.229Z,251.42
2019-05-09T19:38:06.941Z,244.55
2019-05-09T19:40:36.445Z,249.22
2019-05-09T19:43:05.912Z,249.25
2019-05-09T19:45:35.460Z,248.95
2019-05-09T19:48:04.987Z,248.75
2019-05-09T19:50:34.534Z,247.98
2019-05-09T19:53:04.024Z,249.98
2019-05-09T19:55:33.544Z,250.40
2019-05-09T19:58:02.955Z,255.35
2019-05-09T20:00:32.368Z,250.90
2019-05-09T20:03:01.799Z,251.88
2019-05-09T20:05:31.319Z,243.57
2019-05-09T20:08:00.789Z,255.05
2019-05-09T20:10:30.105Z,248.57
2019-05-09T20:13:20.776Z,248.53
2019-05-09T20:15:50.239Z,248.15
2019-05-09T20:18:19.689Z,251.32
2019-05-09T20:20:49.230Z,248.10
2019-05-09T20:23:18.660Z,250.95
2019-05-09T20:25:48.205Z,249.07
2019-05-09T20:28:17.596Z,245.30
2019-05-09T20:30:47.295Z,249.20
2019-05-09T20:33:16.973Z,254.03
2019-05-09T20:35:46.468Z,246.10
2019-05-09T20:38:16.267Z,248.43
2019-05-09T20:40:47.539Z,249.27
2019-05-09T20:43:17.190Z,251.35
2019-05-09T20:45:46.872Z,241.85
2019-05-09T20:48:16.407Z,242.47
2019-05-09T20:50:46.154Z,246.50
2019-05-09T20:53:15.696Z,244.77
2019-05-09T20:55:45.201Z,247.48
2019-05-09T20:58:14.834Z,241.10
2019-05-09T21:00:44.433Z,246.53
2019-05-09T21:03:14.067Z,249.18
2019-05-09T21:05:43.674Z,247.42
2019-05-09T21:08:13.306Z,246.47
2019-05-09T21:10:43.005Z,250.38
2019-05-09T21:13:12.561Z,244.18
2019-05-09T21:15:42.253Z,250.13
2019-05-09T21:18:12.178Z,247.75
2019-05-09T21:20:41.841Z,247.00
2019-05-09T21:23:23.845Z,249.18
2019-05-09T21:25:43.379Z,251.95
2019-05-09T21:28:14.601Z,250.03
2019-05-09T21:30:45.164Z,249.55
2019-05-09T21:33:14.721Z,247.37
2019-05-09T21:35:44.379Z,254.55
2019-05-09T21:38:13.883Z,247.42
2019-05-09T21:40:43.854Z,243.42
2019-05-09T21:43:13.317Z,248.57
2019-05-09T21:45:43.049Z,244.05
2019-05-09T21:48:12.399Z,245.73
2019-05-09T21:50:41.759Z,242.03
2019-05-09T21:53:11.278Z,244.50
2019-05-09T21:55:40.802Z,242.95
2019-05-09T21:58:10.206Z,244.95
2019-05-09T22:00:40.469Z,244.37
2019-05-09T22:03:10.471Z,243.82
2019-05-09T22:05:39.926Z,246.03
2019-05-09T22:08:09.366Z,247.22
2019-05-09T22:10:38.818Z,250.00
2019-05-09T22:13:08.391Z,250.60
2019-05-09T22:15:37.828Z,244.75
2019-05-09T22:18:07.375Z,245.12
2019-05-09T22:20:36.796Z,245.52
2019-05-09T22:23:06.724Z,253.32
2019-05-09T22:25:36.414Z,252.73
2019-05-09T22:28:05.958Z,246.43
2019-05-09T22:30:35.576Z,250.20
2019-05-09T22:33:05.046Z,247.95
2019-05-09T22:35:34.565Z,243.40
2019-05-09T22:38:04.023Z,249.75
2019-05-09T22:40:33.440Z,246.32
2019-05-09T22:43:02.912Z,247.42
2019-05-09T22:45:32.318Z,245.73
2019-05-09T22:48:01.707Z,248.25
2019-05-09T22:50:31.268Z,246.82
2019-05-09T22:53:00.758Z,245.30
2019-05-09T22:55:30.183Z,249.30
2019-05-09T22:57:59.634Z,253.05
2019-05-09T23:00:28.997Z,256.82
2019-05-09T23:02:58.399Z,248.60
2019-05-09T23:05:27.971Z,244.25
2019-05-09T23:07:57.471Z,249.00
2019-05-09T23:10:26.843Z,258.00
2019-05-09T23:12:56.215Z,251.47
2019-05-09T23:15:25.649Z,241.68
2019-05-09T23:17:55.079Z,249.55
2019-05-09T23:20:42.144Z,249.07
2019-05-09T23:23:29.172Z,249.55
2019-05-09T23:25:59.050Z,248.05
2019-05-09T23:28:28.855Z,247.50
2019-05-09T23:31:02.714Z,242.45
2019-05-09T23:33:33.901Z,249.70
2019-05-09T23:36:03.496Z,243.25
2019-05-09T23:38:32.913Z,250.87
2019-05-09T23:41:02.274Z,244.28
2019-05-09T23:43:31.719Z,251.32
2019-05-09T23:46:01.385Z,248.87
2019-05-09T23:48:30.779Z,255.40
2019-05-09T23:51:00.472Z,252.82
2019-05-09T23:53:32.896Z,248.13
2019-05-09T23:56:20.087Z,253.62
2019-05-09T23:59:06.762Z,253.47
